createdAt,value
2022-10-10T00:01:49.680Z,8.25
2022-10-10T00:04:18.223Z,7.53
2022-10-10T00:06:46.904Z,7.15
2022-10-10T00:09:14.976Z,7.18
2022-10-10T00:11:43.036Z,7.60
2022-10-10T00:14:12.681Z,7.15
2022-10-10T00:16:40.937Z,7.20
2022-10-10T00:19:09.181Z,6.82
2022-10-10T00:21:37.287Z,6.95
2022-10-10T00:24:05.565Z,7.10
2022-10-10T00:26:33.492Z,7.50
2022-10-10T00:29:01.401Z,7.18
2022-10-10T00:31:30.844Z,7.72
2022-10-10T00:33:58.780Z,7.93
2022-10-10T00:36:26.693Z,7.28
2022-10-10T00:38:54.697Z,6.65
2022-10-10T00:41:24.004Z,7.15
2022-10-10T00:44:10.726Z,7.57
2022-10-10T00:46:40.167Z,7.72
2022-10-10T00:49:12.743Z,8.45
2022-10-10T00:51:41.133Z,7.38
2022-10-10T00:54:11.233Z,6.95
2022-10-10T00:56:44.780Z,7.47
2022-10-10T00:59:12.937Z,7.15
2022-10-10T01:01:42.751Z,7.05
2022-10-10T01:04:30.058Z,7.65
2022-10-10T01:06:59.106Z,7.20
2022-10-10T01:09:28.000Z,7.20
2022-10-10T01:12:02.599Z,7.63
2022-10-10T01:14:39.394Z,8.02
2022-10-10T01:17:15.052Z,8.02
2022-10-10T01:20:18.837Z,8.40
2022-10-10T01:23:00.037Z,7.95
2022-10-10T01:25:32.334Z,9.85
2022-10-10T01:28:03.406Z,9.05
2022-10-10T01:30:35.404Z,8.30
2022-10-10T01:33:11.634Z,8.27
2022-10-10T01:35:51.746Z,8.52
2022-10-10T01:38:31.775Z,7.50
2022-10-10T01:41:07.170Z,8.18
2022-10-10T01:43:37.310Z,7.78
2022-10-10T01:46:12.218Z,7.78
2022-10-10T01:48:40.973Z,7.55
2022-10-10T01:51:34.126Z,7.70
2022-10-10T01:54:11.064Z,8.73
2022-10-10T01:56:46.462Z,7.68
2022-10-10T01:59:31.163Z,7.72
2022-10-10T02:02:06.504Z,6.75
2022-10-10T02:04:39.715Z,8.00
2022-10-10T02:07:13.028Z,7.25
2022-10-10T02:09:43.729Z,7.43
2022-10-10T02:12:13.225Z,7.03
2022-10-10T02:14:44.231Z,7.70
2022-10-10T02:17:16.153Z,7.25
2022-10-10T02:19:47.679Z,8.00
2022-10-10T02:22:16.142Z,8.32
2022-10-10T02:24:44.500Z,7.45
2022-10-10T02:27:19.311Z,8.07
2022-10-10T02:29:49.330Z,8.60
2022-10-10T02:32:22.971Z,7.90
2022-10-10T02:34:54.086Z,8.77
2022-10-10T02:37:22.940Z,8.35
2022-10-10T02:39:57.492Z,8.75
2022-10-10T02:42:26.626Z,7.55
2022-10-10T02:44:55.780Z,8.55
2022-10-10T02:47:25.217Z,7.78
2022-10-10T02:49:53.204Z,7.78
2022-10-10T02:52:21.251Z,8.10
2022-10-10T02:54:49.254Z,8.43
2022-10-10T02:57:17.272Z,7.82
2022-10-10T02:59:45.310Z,9.38
2022-10-10T03:02:13.750Z,8.10
2022-10-10T03:04:44.737Z,7.70
2022-10-10T03:07:12.708Z,9.07
2022-10-10T03:09:40.697Z,8.23
2022-10-10T03:12:08.675Z,8.02
2022-10-10T03:14:36.795Z,8.40
2022-10-10T03:17:04.770Z,6.82
2022-10-10T03:19:32.989Z,8.38
2022-10-10T03:22:02.394Z,7.95
2022-10-10T03:24:30.363Z,6.85
2022-10-10T03:26:58.364Z,6.88
2022-10-10T03:29:26.290Z,7.28
2022-10-10T03:31:54.301Z,7.45
2022-10-10T03:34:22.276Z,8.18
2022-10-10T03:36:50.246Z,7.18
2022-10-10T03:39:19.554Z,7.75
2022-10-10T03:41:47.473Z,7.65
2022-10-10T03:44:15.424Z,7.78
2022-10-10T03:46:43.305Z,7.43
2022-10-10T03:49:11.270Z,7.82
2022-10-10T03:51:39.375Z,7.47
2022-10-10T03:54:07.316Z,7.30
2022-10-10T03:56:36.651Z,7.32
2022-10-10T03:59:06.184Z,6.88
2022-10-10T04:01:34.195Z,7.47
2022-10-10T04:04:02.157Z,7.47
2022-10-10T04:06:30.087Z,6.72
2022-10-10T04:08:58.040Z,7.20
2022-10-10T04:11:26.051Z,7.35
2022-10-10T04:13:55.412Z,8.15
2022-10-10T04:16:23.418Z,7.03
2022-10-10T04:18:51.333Z,7.57
2022-10-10T04:21:19.319Z,6.70
2022-10-10T04:23:47.237Z,7.38
2022-10-10T04:26:15.208Z,7.53
2022-10-10T04:28:43.157Z,7.32
2022-10-10T04:31:12.713Z,7.57
2022-10-10T04:33:40.668Z,7.13
2022-10-10T04:36:09.031Z,7.32
2022-10-10T04:38:38.198Z,7.43
2022-10-10T04:41:06.416Z,7.82
2022-10-10T04:43:35.371Z,7.93
2022-10-10T04:46:03.594Z,6.65
2022-10-10T04:48:32.981Z,8.05
2022-10-10T04:51:01.033Z,8.00
2022-10-10T04:53:29.305Z,7.68
2022-10-10T04:55:57.334Z,6.50
2022-10-10T04:58:25.372Z,6.60
2022-10-10T05:00:53.779Z,6.55
2022-10-10T05:03:22.475Z,6.50
2022-10-10T05:05:52.128Z,7.00
2022-10-10T05:08:20.941Z,7.15
2022-10-10T05:10:49.150Z,6.93
2022-10-10T05:13:17.567Z,7.55
2022-10-10T05:15:45.888Z,8.05
2022-10-10T05:18:13.778Z,7.45
2022-10-10T05:20:43.844Z,7.82
2022-10-10T05:23:13.065Z,7.20
2022-10-10T05:25:41.359Z,7.78
2022-10-10T05:28:09.288Z,8.00
2022-10-10T05:30:37.221Z,7.95
2022-10-10T05:33:05.309Z,7.57
2022-10-10T05:35:33.400Z,8.23
2022-10-10T05:38:01.518Z,7.68
2022-10-10T05:40:30.783Z,9.07
2022-10-10T05:42:58.724Z,8.02
2022-10-10T05:45:26.705Z,8.65
2022-10-10T05:47:54.597Z,9.35
2022-10-10T05:50:31.508Z,9.63
2022-10-10T05:52:59.459Z,9.52
2022-10-10T05:55:27.400Z,8.13
2022-10-10T05:57:56.748Z,8.88
2022-10-10T06:00:24.813Z,8.40
2022-10-10T06:02:53.020Z,8.25
2022-10-10T06:05:21.188Z,8.85
2022-10-10T06:08:09.359Z,8.40
2022-10-10T06:10:37.851Z,7.32
2022-10-10T06:13:07.359Z,8.18
2022-10-10T06:15:35.381Z,7.78
2022-10-10T06:18:03.348Z,7.22
2022-10-10T06:20:31.304Z,6.95
2022-10-10T06:22:59.247Z,7.35
2022-10-10T06:25:40.095Z,7.15
2022-10-10T06:28:10.517Z,7.47
2022-10-10T06:30:41.420Z,7.25
2022-10-10T06:33:09.555Z,7.40
2022-10-10T06:35:41.662Z,6.65
2022-10-10T06:38:09.688Z,6.07
2022-10-10T06:40:37.618Z,7.88
2022-10-10T06:43:08.763Z,6.53
2022-10-10T06:45:39.216Z,6.93
2022-10-10T06:48:07.388Z,6.97
2022-10-10T06:50:35.472Z,7.72
2022-10-10T06:53:03.427Z,6.95
2022-10-10T06:55:31.520Z,6.03
2022-10-10T06:57:59.693Z,6.72
2022-10-10T07:00:27.541Z,6.88
2022-10-10T07:02:56.709Z,6.28
2022-10-10T07:05:24.707Z,6.40
2022-10-10T07:07:53.373Z,7.00
2022-10-10T07:10:21.443Z,6.00
2022-10-10T07:12:49.323Z,6.35
2022-10-10T07:15:17.343Z,5.70
2022-10-10T07:17:47.362Z,5.55
2022-10-10T07:20:19.856Z,7.03
2022-10-10T07:22:47.850Z,6.60
2022-10-10T07:25:15.910Z,6.00
2022-10-10T07:27:43.883Z,5.30
2022-10-10T07:30:13.049Z,6.15
2022-10-10T07:32:40.938Z,5.57
2022-10-10T07:35:09.517Z,5.18
2022-10-10T07:37:38.846Z,6.43
2022-10-10T07:40:08.571Z,6.15
2022-10-10T07:42:36.557Z,6.07
2022-10-10T07:45:05.234Z,5.32
2022-10-10T07:47:33.148Z,5.15
2022-10-10T07:50:01.017Z,4.97
2022-10-10T07:52:28.901Z,5.45
2022-10-10T07:54:58.195Z,5.40
2022-10-10T07:57:26.033Z,4.88
2022-10-10T07:59:54.014Z,4.50
2022-10-10T08:02:21.897Z,5.30
2022-10-10T08:04:50.066Z,4.50
2022-10-10T08:07:19.566Z,4.25
2022-10-10T08:09:47.530Z,3.78
2022-10-10T08:12:16.815Z,4.80
2022-10-10T08:14:44.854Z,4.30
2022-10-10T08:17:12.854Z,3.67
2022-10-10T08:19:40.734Z,3.70
2022-10-10T08:22:08.807Z,4.63
2022-10-10T08:24:36.710Z,4.13
2022-10-10T08:27:04.744Z,4.32
2022-10-10T08:29:34.385Z,4.18
2022-10-10T08:32:02.408Z,3.72
2022-10-10T08:34:30.335Z,3.95
2022-10-10T08:36:58.230Z,3.60
2022-10-10T08:39:26.225Z,4.25
2022-10-10T08:41:57.617Z,4.43
2022-10-10T08:44:31.346Z,3.78
2022-10-10T08:47:04.386Z,3.70
2022-10-10T08:49:36.095Z,3.60
2022-10-10T08:52:09.322Z,3.95
2022-10-10T08:54:39.037Z,4.15
2022-10-10T08:57:16.500Z,3.63
2022-10-10T08:59:44.789Z,3.13
2022-10-10T09:02:53.259Z,4.32
2022-10-10T09:05:29.799Z,3.25
2022-10-10T09:08:16.493Z,4.03
2022-10-10T09:10:52.554Z,2.88
2022-10-10T09:13:30.079Z,3.00
2022-10-10T09:16:00.261Z,2.45
2022-10-10T09:18:46.757Z,2.80
2022-10-10T09:21:19.126Z,3.30
2022-10-10T09:23:54.276Z,3.63
2022-10-10T09:26:26.887Z,2.40
2022-10-10T09:28:58.066Z,2.58
2022-10-10T09:31:32.905Z,2.67
2022-10-10T09:34:06.324Z,3.40
2022-10-10T09:36:37.704Z,2.95
2022-10-10T09:39:16.365Z,2.40
2022-10-10T09:41:48.835Z,2.55
2022-10-10T09:44:20.336Z,2.47
2022-10-10T09:46:48.493Z,2.58
2022-10-10T09:49:19.781Z,2.47
2022-10-10T09:51:49.494Z,3.03
2022-10-10T09:54:20.248Z,2.38
2022-10-10T09:56:51.769Z,2.53
2022-10-10T09:59:40.423Z,3.38
2022-10-10T10:02:15.615Z,2.33
2022-10-10T10:04:45.158Z,2.33
2022-10-10T10:07:21.688Z,2.95
2022-10-10T10:09:51.301Z,1.90
2022-10-10T10:12:24.002Z,2.10
2022-10-10T10:14:53.785Z,2.35
2022-10-10T10:17:24.497Z,2.08
2022-10-10T10:19:53.992Z,2.88
2022-10-10T10:22:27.757Z,3.63
2022-10-10T10:24:55.934Z,2.50
2022-10-10T10:27:25.642Z,2.30
2022-10-10T10:29:55.482Z,2.67
2022-10-10T10:32:45.944Z,2.63
2022-10-10T10:35:28.358Z,2.60
2022-10-10T10:38:18.335Z,2.30
2022-10-10T10:40:54.510Z,2.90
2022-10-10T10:43:40.238Z,2.95
2022-10-10T10:46:15.304Z,3.13
2022-10-10T10:48:46.827Z,3.83
2022-10-10T10:51:41.061Z,3.50
2022-10-10T10:54:26.628Z,2.92
2022-10-10T10:57:06.047Z,2.95
2022-10-10T11:00:26.322Z,3.13
2022-10-10T11:03:05.991Z,3.13
2022-10-10T11:05:41.693Z,3.75
2022-10-10T11:08:30.847Z,3.55
2022-10-10T11:13:40.595Z,3.20
2022-10-10T11:16:43.429Z,3.22
2022-10-10T11:19:17.943Z,3.72
2022-10-10T11:21:49.450Z,3.42
2022-10-10T11:24:27.162Z,2.50
2022-10-10T11:27:00.491Z,3.40
2022-10-10T11:29:34.318Z,3.50
2022-10-10T11:32:07.321Z,3.50
2022-10-10T11:34:42.906Z,3.42
2022-10-10T11:37:15.162Z,3.25
2022-10-10T11:39:49.274Z,3.40
2022-10-10T11:42:21.916Z,3.25
2022-10-10T11:44:55.973Z,3.47
2022-10-10T11:47:30.525Z,4.78
2022-10-10T11:50:02.151Z,13.02
2022-10-10T11:52:35.609Z,5.10
2022-10-10T11:55:13.769Z,3.75
2022-10-10T12:00:14.689Z,4.38
2022-10-10T12:02:44.811Z,3.92
2022-10-10T12:05:22.063Z,3.65
2022-10-10T12:08:03.811Z,3.30
2022-10-10T12:10:36.895Z,4.18
2022-10-10T12:13:19.268Z,3.47
2022-10-10T12:15:52.209Z,3.10
2022-10-10T12:18:26.206Z,3.08
2022-10-10T12:21:06.302Z,3.70
2022-10-10T12:23:34.723Z,2.40
2022-10-10T12:26:04.285Z,2.75
2022-10-10T12:28:38.387Z,2.63
2022-10-10T12:31:35.152Z,3.47
2022-10-10T12:34:16.217Z,3.03
2022-10-10T12:36:56.239Z,3.65
2022-10-10T12:39:38.869Z,2.50
2022-10-10T12:42:30.074Z,3.10
2022-10-10T12:44:58.063Z,2.45
2022-10-10T12:48:05.557Z,3.17
2022-10-10T12:50:36.832Z,2.72
2022-10-10T12:53:07.874Z,3.22
2022-10-10T12:55:43.485Z,3.90
2022-10-10T12:58:26.620Z,2.60
2022-10-10T13:00:57.659Z,2.63
2022-10-10T13:03:31.607Z,3.35
2022-10-10T13:06:04.903Z,3.33
2022-10-10T13:08:33.986Z,4.57
2022-10-10T13:11:04.355Z,3.78
2022-10-10T13:13:34.494Z,2.92
2022-10-10T13:16:08.971Z,3.35
2022-10-10T13:18:39.419Z,3.67
2022-10-10T13:21:10.147Z,3.65
2022-10-10T13:23:41.900Z,3.70
2022-10-10T13:26:24.911Z,3.10
2022-10-10T13:28:56.990Z,3.80
2022-10-10T13:31:26.349Z,3.72
2022-10-10T13:33:58.668Z,3.55
2022-10-10T13:36:30.393Z,3.17
2022-10-10T13:38:59.050Z,3.67
2022-10-10T13:41:28.269Z,3.60
2022-10-10T13:43:57.683Z,3.45
2022-10-10T13:46:32.303Z,3.67
2022-10-10T13:49:01.389Z,3.28
2022-10-10T13:51:43.600Z,3.80
2022-10-10T13:54:39.752Z,3.40
2022-10-10T13:57:14.746Z,3.25
2022-10-10T13:59:45.215Z,4.00
2022-10-10T14:02:15.238Z,3.70
2022-10-10T14:04:49.512Z,3.10
2022-10-10T14:07:21.726Z,4.10
2022-10-10T14:09:54.668Z,4.75
2022-10-10T14:12:29.179Z,4.15
2022-10-10T14:15:00.839Z,4.22
2022-10-10T14:17:30.422Z,3.92
2022-10-10T14:19:59.228Z,4.22
2022-10-10T14:22:27.589Z,3.35
2022-10-10T14:24:55.515Z,3.95
2022-10-10T14:27:26.414Z,3.90
2022-10-10T14:29:55.626Z,4.30
2022-10-10T14:32:25.391Z,4.38
2022-10-10T14:34:53.566Z,3.40
2022-10-10T14:37:25.751Z,4.05
2022-10-10T14:39:53.953Z,3.15
2022-10-10T14:42:23.427Z,3.38
2022-10-10T14:44:51.301Z,3.60
2022-10-10T14:47:21.375Z,3.35
2022-10-10T14:49:52.561Z,3.35
2022-10-10T14:52:20.549Z,3.97
2022-10-10T14:54:48.451Z,3.60
2022-10-10T14:57:16.503Z,3.88
2022-10-10T14:59:48.223Z,4.70
2022-10-10T15:02:19.859Z,3.90
2022-10-10T15:04:47.901Z,3.35
2022-10-10T15:07:17.694Z,4.32
2022-10-10T15:12:35.469Z,3.65
2022-10-10T15:15:03.764Z,4.10
2022-10-10T15:17:34.236Z,4.10
2022-10-10T15:20:02.420Z,4.35
2022-10-10T15:22:31.950Z,4.38
2022-10-10T15:25:00.348Z,4.38
2022-10-10T15:27:29.042Z,3.58
2022-10-10T15:29:56.984Z,4.03
2022-10-10T15:32:25.718Z,3.88
2022-10-10T15:34:53.993Z,4.00
2022-10-10T15:37:24.884Z,3.83
2022-10-10T15:39:54.255Z,3.05
2022-10-10T15:42:23.468Z,4.60
2022-10-10T15:44:52.218Z,4.45
2022-10-10T15:47:21.212Z,3.20
2022-10-10T15:49:49.466Z,4.45
2022-10-10T15:52:17.949Z,4.72
2022-10-10T15:54:48.593Z,4.03
2022-10-10T15:57:19.037Z,4.13
2022-10-10T15:59:47.414Z,3.90
2022-10-10T16:02:15.728Z,3.28
2022-10-10T16:04:43.917Z,3.85
2022-10-10T16:07:26.833Z,3.40
2022-10-10T16:09:57.852Z,4.53
2022-10-10T16:12:27.189Z,3.47
2022-10-10T16:14:55.016Z,3.03
2022-10-10T16:17:23.733Z,4.20
2022-10-10T16:19:52.409Z,3.40
2022-10-10T16:22:21.140Z,4.75
2022-10-10T16:25:03.833Z,4.22
2022-10-10T16:27:38.983Z,4.00
2022-10-10T16:30:08.562Z,4.05
2022-10-10T16:32:41.047Z,3.78
2022-10-10T16:35:11.329Z,3.15
2022-10-10T16:37:39.379Z,4.03
2022-10-10T16:40:08.736Z,3.20
2022-10-10T16:42:38.176Z,3.55
2022-10-10T16:45:07.287Z,3.83
2022-10-10T16:47:35.219Z,3.95
2022-10-10T16:50:03.170Z,4.30
2022-10-10T16:52:32.985Z,5.05
2022-10-10T16:55:00.848Z,4.65
2022-10-10T16:57:28.733Z,5.35
2022-10-10T16:59:57.890Z,4.80
2022-10-10T17:02:25.751Z,5.53
2022-10-10T17:04:53.640Z,5.47
2022-10-10T17:07:21.512Z,4.68
2022-10-10T17:09:49.420Z,4.72
2022-10-10T17:12:17.699Z,4.93
2022-10-10T17:14:45.532Z,5.40
2022-10-10T17:17:14.968Z,5.22
2022-10-10T17:19:42.854Z,5.38
2022-10-10T17:22:10.798Z,4.80
2022-10-10T17:24:38.671Z,5.68
2022-10-10T17:27:06.645Z,4.88
2022-10-10T17:29:34.696Z,5.40
2022-10-10T17:32:06.333Z,5.13
2022-10-10T17:34:36.174Z,6.35
2022-10-10T17:37:05.019Z,4.95
2022-10-10T17:39:33.065Z,5.15
2022-10-10T17:42:01.473Z,4.72
2022-10-10T17:44:29.432Z,4.55
2022-10-10T17:46:57.734Z,5.57
2022-10-10T17:49:25.853Z,5.65
2022-10-10T17:51:55.112Z,4.72
2022-10-10T17:54:23.257Z,4.20
2022-10-10T17:56:51.229Z,4.72
2022-10-10T17:59:19.100Z,5.07
2022-10-10T18:01:46.956Z,4.63
2022-10-10T18:04:16.359Z,4.22
2022-10-10T18:06:44.329Z,6.00
2022-10-10T18:09:13.629Z,5.35
2022-10-10T18:11:41.529Z,5.03
2022-10-10T18:14:09.394Z,6.20
2022-10-10T18:16:37.979Z,7.55
2022-10-10T18:19:07.285Z,8.02
2022-10-10T18:21:35.901Z,6.10
2022-10-10T18:24:03.973Z,6.07
2022-10-10T18:26:34.856Z,6.68
2022-10-10T18:29:02.881Z,7.25
2022-10-10T18:31:33.154Z,6.20
2022-10-10T18:34:02.391Z,5.90
2022-10-10T18:36:32.132Z,4.28
2022-10-10T18:39:01.077Z,6.43
2022-10-10T18:41:34.363Z,4.97
2022-10-10T18:44:04.821Z,4.47
2022-10-10T18:46:33.369Z,4.68
2022-10-10T18:49:02.277Z,4.55
2022-10-10T18:51:31.123Z,4.80
2022-10-10T18:54:02.159Z,4.45
2022-10-10T18:56:31.493Z,4.63
2022-10-10T18:59:01.667Z,4.18
2022-10-10T19:01:32.616Z,3.97
2022-10-10T19:04:00.986Z,4.25
2022-10-10T19:06:29.232Z,4.40
2022-10-10T19:08:58.678Z,4.43
2022-10-10T19:11:28.662Z,4.55
2022-10-10T19:13:57.592Z,4.95
2022-10-10T19:16:25.460Z,3.78
2022-10-10T19:18:58.186Z,4.13
2022-10-10T19:21:26.799Z,5.03
2022-10-10T19:23:54.854Z,3.80
2022-10-10T19:26:22.839Z,3.60
2022-10-10T19:28:50.742Z,3.25
2022-10-10T19:31:20.227Z,4.65
2022-10-10T19:33:52.767Z,3.58
2022-10-10T19:36:21.999Z,3.75
2022-10-10T19:38:49.974Z,4.63
2022-10-10T19:41:18.589Z,3.67
2022-10-10T19:43:49.290Z,3.10
2022-10-10T19:46:18.828Z,3.53
2022-10-10T19:48:46.673Z,3.67
2022-10-10T19:51:16.034Z,4.00
2022-10-10T19:53:45.811Z,4.97
2022-10-10T19:56:15.517Z,5.03
2022-10-10T19:58:44.140Z,4.30
2022-10-10T20:01:14.275Z,9.05
2022-10-10T20:03:42.547Z,6.40
2022-10-10T20:06:10.867Z,6.25
2022-10-10T20:08:39.451Z,5.55
2022-10-10T20:11:08.708Z,5.85
2022-10-10T20:13:36.887Z,5.82
2022-10-10T20:16:07.617Z,6.38
2022-10-10T20:18:36.837Z,6.68
2022-10-10T20:21:15.524Z,6.25
2022-10-10T20:23:45.232Z,6.60
2022-10-10T20:26:17.031Z,6.85
2022-10-10T20:28:45.178Z,6.60
2022-10-10T20:31:19.897Z,6.50
2022-10-10T20:33:48.405Z,6.90
2022-10-10T20:36:16.922Z,5.65
2022-10-10T20:38:45.677Z,5.20
2022-10-10T20:41:14.859Z,4.95
2022-10-10T20:43:42.703Z,4.57
2022-10-10T20:46:12.238Z,6.03
2022-10-10T20:48:40.843Z,5.78
2022-10-10T20:51:10.458Z,4.63
2022-10-10T20:53:39.566Z,5.47
2022-10-10T20:56:09.768Z,4.82
2022-10-10T20:58:40.572Z,6.10
2022-10-10T21:01:10.571Z,5.40
2022-10-10T21:03:38.878Z,5.95
2022-10-10T21:06:09.122Z,6.00
2022-10-10T21:08:37.375Z,6.10
2022-10-10T21:11:07.029Z,4.72
2022-10-10T21:13:36.935Z,5.15
2022-10-10T21:16:09.206Z,6.78
2022-10-10T21:18:37.345Z,6.63
2022-10-10T21:21:07.085Z,4.85
2022-10-10T21:23:37.154Z,5.82
2022-10-10T21:26:06.752Z,5.10
2022-10-10T21:28:35.386Z,5.25
2022-10-10T21:31:04.645Z,5.63
2022-10-10T21:33:34.840Z,4.68
2022-10-10T21:36:03.229Z,5.35
2022-10-10T21:38:31.555Z,4.95
2022-10-10T21:41:05.984Z,5.55
2022-10-10T21:43:34.635Z,5.22
2022-10-10T21:46:06.718Z,5.20
2022-10-10T21:48:36.851Z,4.82
2022-10-10T21:51:04.828Z,5.07
2022-10-10T21:53:33.097Z,4.20
2022-10-10T21:56:06.302Z,4.70
2022-10-10T21:58:35.528Z,4.50
2022-10-10T22:01:08.581Z,3.83
2022-10-10T22:03:38.022Z,4.32
2022-10-10T22:06:07.791Z,4.15
2022-10-10T22:08:36.403Z,4.15
2022-10-10T22:11:05.821Z,4.25
2022-10-10T22:13:33.922Z,4.82
2022-10-10T22:16:02.526Z,4.10
2022-10-10T22:18:31.153Z,4.80
2022-10-10T22:21:03.180Z,4.72
2022-10-10T22:23:31.123Z,4.68
2022-10-10T22:25:59.193Z,5.30
2022-10-10T22:28:27.717Z,4.95
2022-10-10T22:30:55.603Z,4.40
2022-10-10T22:33:23.485Z,4.60
2022-10-10T22:35:51.327Z,4.05
2022-10-10T22:38:20.551Z,5.20
2022-10-10T22:40:49.019Z,4.40
2022-10-10T22:43:16.881Z,5.05
2022-10-10T22:45:44.769Z,4.68
2022-10-10T22:48:13.399Z,4.60
2022-10-10T22:50:41.237Z,4.90
2022-10-10T22:53:09.106Z,4.45
2022-10-10T22:55:38.278Z,5.35
2022-10-10T22:58:06.267Z,4.65
2022-10-10T23:00:34.159Z,4.47
2022-10-10T23:03:02.034Z,4.38
2022-10-10T23:05:29.867Z,4.63
2022-10-10T23:07:57.713Z,4.68
2022-10-10T23:10:25.609Z,5.25
2022-10-10T23:12:54.807Z,5.45
2022-10-10T23:15:22.717Z,4.15
2022-10-10T23:17:50.603Z,5.13
2022-10-10T23:20:18.537Z,4.95
2022-10-10T23:22:46.418Z,4.32
2022-10-10T23:25:14.281Z,4.80
2022-10-10T23:27:42.134Z,3.85
2022-10-10T23:30:12.328Z,4.70
2022-10-10T23:32:40.206Z,4.28
2022-10-10T23:35:08.952Z,4.72
2022-10-10T23:37:36.913Z,5.38
2022-10-10T23:40:05.274Z,4.65
2022-10-10T23:42:33.318Z,4.47
2022-10-10T23:45:01.161Z,4.90
2022-10-10T23:47:30.448Z,4.55
2022-10-10T23:49:58.889Z,5.20
2022-10-10T23:52:26.913Z,4.60
2022-10-10T23:54:54.820Z,5.82
2022-10-10T23:57:22.743Z,5.60
2022-10-10T23:59:50.811Z,4.55
